sensor_id;sensor_type;location;lat;lon;timestamp;P1;durP1;ratioP1;P2;durP2;ratioP2
51943;SDS011;37969;53.132;6.370;2023-04-06T00:00:47;13.23;;;8.05;;
51943;SDS011;37969;53.132;6.370;2023-04-06T00:03:13;14.43;;;8.98;;
51943;SDS011;37969;53.132;6.370;2023-04-06T00:05:40;12.10;;;7.95;;
51943;SDS011;37969;53.132;6.370;2023-04-06T00:08:06;9.45;;;7.38;;
51943;SDS011;37969;53.132;6.370;2023-04-06T00:10:32;10.40;;;7.82;;
51943;SDS011;37969;53.132;6.370;2023-04-06T00:12:58;15.63;;;8.23;;
51943;SDS011;37969;53.132;6.370;2023-04-06T00:15:25;13.48;;;8.10;;
51943;SDS011;37969;53.132;6.370;2023-04-06T00:17:51;14.25;;;8.32;;
51943;SDS011;37969;53.132;6.370;2023-04-06T00:20:18;13.10;;;7.95;;
51943;SDS011;37969;53.132;6.370;2023-04-06T00:22:44;11.63;;;8.30;;
51943;SDS011;37969;53.132;6.370;2023-04-06T00:25:11;12.18;;;8.52;;
51943;SDS011;37969;53.132;6.370;2023-04-06T00:27:37;11.70;;;8.13;;
51943;SDS011;37969;53.132;6.370;2023-04-06T00:30:04;16.67;;;8.43;;
51943;SDS011;37969;53.132;6.370;2023-04-06T00:32:31;10.65;;;8.23;;
51943;SDS011;37969;53.132;6.370;2023-04-06T00:34:57;13.65;;;8.35;;
51943;SDS011;37969;53.132;6.370;2023-04-06T00:37:23;12.65;;;8.20;;
51943;SDS011;37969;53.132;6.370;2023-04-06T00:39:50;9.35;;;7.53;;
51943;SDS011;37969;53.132;6.370;2023-04-06T00:42:16;11.75;;;7.93;;
51943;SDS011;37969;53.132;6.370;2023-04-06T00:44:50;13.30;;;7.78;;
51943;SDS011;37969;53.132;6.370;2023-04-06T00:47:16;11.30;;;8.07;;
51943;SDS011;37969;53.132;6.370;2023-04-06T00:49:43;11.40;;;7.97;;
51943;SDS011;37969;53.132;6.370;2023-04-06T00:52:09;12.25;;;8.05;;
51943;SDS011;37969;53.132;6.370;2023-04-06T00:54:35;12.15;;;7.80;;
51943;SDS011;37969;53.132;6.370;2023-04-06T00:57:01;11.45;;;8.23;;
51943;SDS011;37969;53.132;6.370;2023-04-06T00:59:27;9.30;;;7.10;;
51943;SDS011;37969;53.132;6.370;2023-04-06T01:01:54;11.02;;;6.93;;
51943;SDS011;37969;53.132;6.370;2023-04-06T01:04:20;10.30;;;7.55;;
51943;SDS011;37969;53.132;6.370;2023-04-06T01:06:48;9.32;;;7.60;;
51943;SDS011;37969;53.132;6.370;2023-04-06T01:09:14;10.65;;;7.40;;
51943;SDS011;37969;53.132;6.370;2023-04-06T01:11:40;8.32;;;7.43;;
51943;SDS011;37969;53.132;6.370;2023-04-06T01:14:07;11.15;;;7.22;;
51943;SDS011;37969;53.132;6.370;2023-04-06T01:16:33;15.10;;;7.95;;
51943;SDS011;37969;53.132;6.370;2023-04-06T01:19:00;11.38;;;7.25;;
51943;SDS011;37969;53.132;6.370;2023-04-06T01:21:26;9.57;;;7.25;;
51943;SDS011;37969;53.132;6.370;2023-04-06T01:23:52;12.40;;;7.05;;
51943;SDS011;37969;53.132;6.370;2023-04-06T01:26:18;9.43;;;7.32;;
51943;SDS011;37969;53.132;6.370;2023-04-06T01:28:44;13.15;;;7.20;;
51943;SDS011;37969;53.132;6.370;2023-04-06T01:31:10;13.20;;;7.32;;
51943;SDS011;37969;53.132;6.370;2023-04-06T01:33:36;13.00;;;7.18;;
51943;SDS011;37969;53.132;6.370;2023-04-06T01:36:03;13.25;;;7.97;;
51943;SDS011;37969;53.132;6.370;2023-04-06T01:38:29;10.55;;;7.38;;
51943;SDS011;37969;53.132;6.370;2023-04-06T01:40:55;9.13;;;7.38;;
51943;SDS011;37969;53.132;6.370;2023-04-06T01:43:21;8.38;;;7.15;;
51943;SDS011;37969;53.132;6.370;2023-04-06T01:45:48;9.93;;;6.72;;
51943;SDS011;37969;53.132;6.370;2023-04-06T01:48:14;9.60;;;7.05;;
51943;SDS011;37969;53.132;6.370;2023-04-06T01:50:40;9.32;;;6.72;;
51943;SDS011;37969;53.132;6.370;2023-04-06T01:53:06;11.00;;;7.18;;
51943;SDS011;37969;53.132;6.370;2023-04-06T01:55:33;9.68;;;6.82;;
51943;SDS011;37969;53.132;6.370;2023-04-06T01:57:59;10.77;;;7.25;;
51943;SDS011;37969;53.132;6.370;2023-04-06T02:00:25;9.65;;;6.70;;
51943;SDS011;37969;53.132;6.370;2023-04-06T02:02:51;8.63;;;7.00;;
51943;SDS011;37969;53.132;6.370;2023-04-06T02:05:17;11.88;;;6.63;;
51943;SDS011;37969;53.132;6.370;2023-04-06T02:07:43;10.45;;;7.20;;
51943;SDS011;37969;53.132;6.370;2023-04-06T02:10:11;9.60;;;7.00;;
51943;SDS011;37969;53.132;6.370;2023-04-06T02:12:38;11.07;;;8.13;;
51943;SDS011;37969;53.132;6.370;2023-04-06T02:15:04;10.30;;;7.22;;
51943;SDS011;37969;53.132;6.370;2023-04-06T02:17:30;10.40;;;6.85;;
51943;SDS011;37969;53.132;6.370;2023-04-06T02:19:57;9.18;;;6.68;;
51943;SDS011;37969;53.132;6.370;2023-04-06T02:22:23;9.60;;;7.00;;
51943;SDS011;37969;53.132;6.370;2023-04-06T02:24:49;9.55;;;6.47;;
51943;SDS011;37969;53.132;6.370;2023-04-06T02:27:15;9.23;;;7.07;;
51943;SDS011;37969;53.132;6.370;2023-04-06T02:29:41;10.90;;;6.47;;
51943;SDS011;37969;53.132;6.370;2023-04-06T02:32:07;12.02;;;7.43;;
51943;SDS011;37969;53.132;6.370;2023-04-06T02:34:34;11.50;;;7.05;;
51943;SDS011;37969;53.132;6.370;2023-04-06T02:37:00;10.48;;;7.28;;
51943;SDS011;37969;53.132;6.370;2023-04-06T02:39:26;10.15;;;7.50;;
51943;SDS011;37969;53.132;6.370;2023-04-06T02:41:52;14.75;;;7.47;;
51943;SDS011;37969;53.132;6.370;2023-04-06T02:44:18;8.13;;;6.90;;
51943;SDS011;37969;53.132;6.370;2023-04-06T02:46:44;10.52;;;7.25;;
51943;SDS011;37969;53.132;6.370;2023-04-06T02:49:11;12.02;;;7.15;;
51943;SDS011;37969;53.132;6.370;2023-04-06T02:51:37;13.55;;;7.68;;
51943;SDS011;37969;53.132;6.370;2023-04-06T02:54:03;11.85;;;6.82;;
51943;SDS011;37969;53.132;6.370;2023-04-06T02:56:29;10.23;;;7.15;;
51943;SDS011;37969;53.132;6.370;2023-04-06T02:58:55;9.35;;;7.30;;
51943;SDS011;37969;53.132;6.370;2023-04-06T03:01:21;10.27;;;6.53;;
51943;SDS011;37969;53.132;6.370;2023-04-06T03:03:47;10.07;;;7.32;;
51943;SDS011;37969;53.132;6.370;2023-04-06T03:06:13;15.20;;;6.97;;
51943;SDS011;37969;53.132;6.370;2023-04-06T03:08:40;14.95;;;7.70;;
51943;SDS011;37969;53.132;6.370;2023-04-06T03:11:06;11.32;;;7.03;;
51943;SDS011;37969;53.132;6.370;2023-04-06T03:13:32;10.93;;;6.70;;
51943;SDS011;37969;53.132;6.370;2023-04-06T03:15:58;12.52;;;7.68;;
51943;SDS011;37969;53.132;6.370;2023-04-06T03:18:24;12.73;;;7.55;;
51943;SDS011;37969;53.132;6.370;2023-04-06T03:20:51;9.18;;;7.55;;
51943;SDS011;37969;53.132;6.370;2023-04-06T03:23:19;12.85;;;8.15;;
51943;SDS011;37969;53.132;6.370;2023-04-06T03:25:46;10.38;;;7.38;;
51943;SDS011;37969;53.132;6.370;2023-04-06T03:28:12;10.63;;;7.47;;
51943;SDS011;37969;53.132;6.370;2023-04-06T03:30:38;11.73;;;7.35;;
51943;SDS011;37969;53.132;6.370;2023-04-06T03:33:05;9.63;;;7.82;;
51943;SDS011;37969;53.132;6.370;2023-04-06T03:35:31;9.93;;;7.55;;
51943;SDS011;37969;53.132;6.370;2023-04-06T03:37:57;8.85;;;7.38;;
51943;SDS011;37969;53.132;6.370;2023-04-06T03:40:23;13.48;;;7.97;;
51943;SDS011;37969;53.132;6.370;2023-04-06T03:42:49;13.98;;;7.80;;
51943;SDS011;37969;53.132;6.370;2023-04-06T03:45:15;12.40;;;8.13;;
51943;SDS011;37969;53.132;6.370;2023-04-06T03:47:41;11.55;;;7.57;;
51943;SDS011;37969;53.132;6.370;2023-04-06T03:50:08;10.13;;;7.65;;
51943;SDS011;37969;53.132;6.370;2023-04-06T03:52:34;11.35;;;7.70;;
51943;SDS011;37969;53.132;6.370;2023-04-06T03:55:01;10.65;;;8.00;;
51943;SDS011;37969;53.132;6.370;2023-04-06T03:57:27;13.23;;;7.78;;
51943;SDS011;37969;53.132;6.370;2023-04-06T03:59:53;11.70;;;7.30;;
51943;SDS011;37969;53.132;6.370;2023-04-06T04:02:20;12.55;;;7.82;;
51943;SDS011;37969;53.132;6.370;2023-04-06T04:04:46;13.90;;;8.00;;
51943;SDS011;37969;53.132;6.370;2023-04-06T04:07:12;9.38;;;7.38;;
51943;SDS011;37969;53.132;6.370;2023-04-06T04:09:38;15.32;;;7.90;;
51943;SDS011;37969;53.132;6.370;2023-04-06T04:12:05;10.25;;;7.65;;
51943;SDS011;37969;53.132;6.370;2023-04-06T04:14:31;10.73;;;7.38;;
51943;SDS011;37969;53.132;6.370;2023-04-06T04:16:57;10.45;;;7.80;;
51943;SDS011;37969;53.132;6.370;2023-04-06T04:19:23;17.00;;;8.88;;
51943;SDS011;37969;53.132;6.370;2023-04-06T04:21:49;12.60;;;8.32;;
51943;SDS011;37969;53.132;6.370;2023-04-06T04:24:16;11.05;;;8.65;;
51943;SDS011;37969;53.132;6.370;2023-04-06T04:26:42;11.40;;;8.95;;
51943;SDS011;37969;53.132;6.370;2023-04-06T04:29:09;11.55;;;8.38;;
51943;SDS011;37969;53.132;6.370;2023-04-06T04:31:35;11.52;;;8.52;;
51943;SDS011;37969;53.132;6.370;2023-04-06T04:34:01;12.38;;;8.45;;
51943;SDS011;37969;53.132;6.370;2023-04-06T04:36:27;11.20;;;8.57;;
51943;SDS011;37969;53.132;6.370;2023-04-06T04:38:53;13.35;;;8.75;;
51943;SDS011;37969;53.132;6.370;2023-04-06T04:41:19;10.07;;;8.60;;
51943;SDS011;37969;53.132;6.370;2023-04-06T04:43:46;12.13;;;7.70;;
51943;SDS011;37969;53.132;6.370;2023-04-06T04:46:12;16.42;;;8.98;;
51943;SDS011;37969;53.132;6.370;2023-04-06T04:48:38;12.48;;;8.52;;
51943;SDS011;37969;53.132;6.370;2023-04-06T04:51:04;14.77;;;9.70;;
51943;SDS011;37969;53.132;6.370;2023-04-06T04:53:30;11.05;;;8.82;;
51943;SDS011;37969;53.132;6.370;2023-04-06T04:55:57;11.63;;;8.27;;
51943;SDS011;37969;53.132;6.370;2023-04-06T04:58:23;13.82;;;8.85;;
51943;SDS011;37969;53.132;6.370;2023-04-06T05:00:49;11.02;;;9.45;;
51943;SDS011;37969;53.132;6.370;2023-04-06T05:03:20;15.05;;;9.02;;
51943;SDS011;37969;53.132;6.370;2023-04-06T05:05:47;12.35;;;8.90;;
51943;SDS011;37969;53.132;6.370;2023-04-06T05:08:13;16.33;;;9.15;;
51943;SDS011;37969;53.132;6.370;2023-04-06T05:10:39;13.48;;;9.40;;
51943;SDS011;37969;53.132;6.370;2023-04-06T05:13:05;13.93;;;8.90;;
51943;SDS011;37969;53.132;6.370;2023-04-06T05:15:31;13.68;;;9.13;;
51943;SDS011;37969;53.132;6.370;2023-04-06T05:18:00;12.13;;;8.80;;
51943;SDS011;37969;53.132;6.370;2023-04-06T05:20:26;12.68;;;9.05;;
51943;SDS011;37969;53.132;6.370;2023-04-06T05:22:53;12.38;;;9.27;;
51943;SDS011;37969;53.132;6.370;2023-04-06T05:25:19;15.68;;;9.20;;
51943;SDS011;37969;53.132;6.370;2023-04-06T05:27:45;12.55;;;8.90;;
51943;SDS011;37969;53.132;6.370;2023-04-06T05:30:11;11.65;;;9.02;;
51943;SDS011;37969;53.132;6.370;2023-04-06T05:32:38;14.45;;;8.90;;
51943;SDS011;37969;53.132;6.370;2023-04-06T05:35:04;12.10;;;9.02;;
51943;SDS011;37969;53.132;6.370;2023-04-06T05:37:30;14.38;;;10.30;;
51943;SDS011;37969;53.132;6.370;2023-04-06T05:39:56;13.85;;;9.93;;
51943;SDS011;37969;53.132;6.370;2023-04-06T05:42:23;13.10;;;9.43;;
51943;SDS011;37969;53.132;6.370;2023-04-06T05:44:49;15.02;;;10.05;;
51943;SDS011;37969;53.132;6.370;2023-04-06T05:47:15;15.10;;;9.50;;
51943;SDS011;37969;53.132;6.370;2023-04-06T05:49:41;14.98;;;9.90;;
51943;SDS011;37969;53.132;6.370;2023-04-06T05:52:08;11.60;;;9.52;;
51943;SDS011;37969;53.132;6.370;2023-04-06T05:54:35;14.55;;;10.13;;
51943;SDS011;37969;53.132;6.370;2023-04-06T05:57:02;15.40;;;10.00;;
51943;SDS011;37969;53.132;6.370;2023-04-06T05:59:29;14.63;;;10.43;;
51943;SDS011;37969;53.132;6.370;2023-04-06T06:01:55;13.38;;;9.82;;
51943;SDS011;37969;53.132;6.370;2023-04-06T06:04:22;16.77;;;10.25;;
51943;SDS011;37969;53.132;6.370;2023-04-06T06:06:48;16.48;;;10.00;;
51943;SDS011;37969;53.132;6.370;2023-04-06T06:09:14;15.93;;;9.57;;
51943;SDS011;37969;53.132;6.370;2023-04-06T06:11:40;13.60;;;10.80;;
51943;SDS011;37969;53.132;6.370;2023-04-06T06:14:07;16.20;;;10.50;;
51943;SDS011;37969;53.132;6.370;2023-04-06T06:16:33;12.35;;;9.48;;
51943;SDS011;37969;53.132;6.370;2023-04-06T06:18:59;15.20;;;10.82;;
51943;SDS011;37969;53.132;6.370;2023-04-06T06:21:25;13.23;;;10.02;;
51943;SDS011;37969;53.132;6.370;2023-04-06T06:23:51;18.35;;;12.20;;
51943;SDS011;37969;53.132;6.370;2023-04-06T06:26:19;14.15;;;10.30;;
51943;SDS011;37969;53.132;6.370;2023-04-06T06:28:45;13.07;;;9.88;;
51943;SDS011;37969;53.132;6.370;2023-04-06T06:31:11;15.38;;;10.27;;
51943;SDS011;37969;53.132;6.370;2023-04-06T06:33:37;13.68;;;9.80;;
51943;SDS011;37969;53.132;6.370;2023-04-06T06:36:04;14.30;;;10.07;;
51943;SDS011;37969;53.132;6.370;2023-04-06T06:38:30;21.65;;;10.70;;
51943;SDS011;37969;53.132;6.370;2023-04-06T06:40:56;16.45;;;10.18;;
51943;SDS011;37969;53.132;6.370;2023-04-06T06:43:22;14.50;;;9.80;;
51943;SDS011;37969;53.132;6.370;2023-04-06T06:45:48;17.08;;;10.65;;
51943;SDS011;37969;53.132;6.370;2023-04-06T06:48:15;12.88;;;10.13;;
51943;SDS011;37969;53.132;6.370;2023-04-06T06:50:41;13.63;;;9.30;;
51943;SDS011;37969;53.132;6.370;2023-04-06T06:53:07;16.70;;;9.95;;
51943;SDS011;37969;53.132;6.370;2023-04-06T06:55:33;13.80;;;10.32;;
51943;SDS011;37969;53.132;6.370;2023-04-06T06:57:59;15.75;;;10.65;;
51943;SDS011;37969;53.132;6.370;2023-04-06T07:00:26;16.40;;;10.20;;
51943;SDS011;37969;53.132;6.370;2023-04-06T07:02:52;16.30;;;10.20;;
51943;SDS011;37969;53.132;6.370;2023-04-06T07:05:18;18.45;;;9.93;;
51943;SDS011;37969;53.132;6.370;2023-04-06T07:07:45;19.30;;;11.25;;
51943;SDS011;37969;53.132;6.370;2023-04-06T07:10:11;15.15;;;10.80;;
51943;SDS011;37969;53.132;6.370;2023-04-06T07:12:37;15.68;;;10.82;;
51943;SDS011;37969;53.132;6.370;2023-04-06T07:15:03;15.80;;;10.68;;
51943;SDS011;37969;53.132;6.370;2023-04-06T07:17:30;15.25;;;10.65;;
51943;SDS011;37969;53.132;6.370;2023-04-06T07:19:56;16.35;;;10.32;;
51943;SDS011;37969;53.132;6.370;2023-04-06T07:22:22;16.65;;;10.10;;
51943;SDS011;37969;53.132;6.370;2023-04-06T07:24:48;18.02;;;10.63;;
51943;SDS011;37969;53.132;6.370;2023-04-06T07:27:15;17.48;;;11.10;;
51943;SDS011;37969;53.132;6.370;2023-04-06T07:29:42;14.95;;;10.43;;
51943;SDS011;37969;53.132;6.370;2023-04-06T07:32:08;17.30;;;11.23;;
51943;SDS011;37969;53.132;6.370;2023-04-06T07:34:34;18.35;;;10.93;;
51943;SDS011;37969;53.132;6.370;2023-04-06T07:37:00;14.10;;;10.63;;
51943;SDS011;37969;53.132;6.370;2023-04-06T07:39:28;15.25;;;11.15;;
51943;SDS011;37969;53.132;6.370;2023-04-06T07:41:54;18.38;;;11.85;;
51943;SDS011;37969;53.132;6.370;2023-04-06T07:44:20;16.90;;;10.10;;
51943;SDS011;37969;53.132;6.370;2023-04-06T07:46:46;14.07;;;10.18;;
51943;SDS011;37969;53.132;6.370;2023-04-06T07:49:13;14.52;;;11.13;;
51943;SDS011;37969;53.132;6.370;2023-04-06T07:51:39;16.50;;;10.82;;
51943;SDS011;37969;53.132;6.370;2023-04-06T07:54:05;16.00;;;10.68;;
51943;SDS011;37969;53.132;6.370;2023-04-06T07:56:31;13.98;;;10.82;;
51943;SDS011;37969;53.132;6.370;2023-04-06T07:58:57;14.02;;;10.27;;
51943;SDS011;37969;53.132;6.370;2023-04-06T08:01:24;14.60;;;10.73;;
51943;SDS011;37969;53.132;6.370;2023-04-06T08:03:50;17.35;;;11.00;;
51943;SDS011;37969;53.132;6.370;2023-04-06T08:06:16;15.52;;;10.68;;
51943;SDS011;37969;53.132;6.370;2023-04-06T08:08:42;18.92;;;10.82;;
51943;SDS011;37969;53.132;6.370;2023-04-06T08:11:09;17.33;;;10.95;;
51943;SDS011;37969;53.132;6.370;2023-04-06T08:13:35;15.02;;;9.93;;
51943;SDS011;37969;53.132;6.370;2023-04-06T08:16:01;16.48;;;10.32;;
51943;SDS011;37969;53.132;6.370;2023-04-06T08:18:27;15.32;;;10.43;;
51943;SDS011;37969;53.132;6.370;2023-04-06T08:20:55;15.80;;;10.85;;
51943;SDS011;37969;53.132;6.370;2023-04-06T08:23:21;16.63;;;10.02;;
51943;SDS011;37969;53.132;6.370;2023-04-06T08:25:48;13.30;;;9.93;;
51943;SDS011;37969;53.132;6.370;2023-04-06T08:28:14;17.65;;;11.02;;
51943;SDS011;37969;53.132;6.370;2023-04-06T08:30:41;16.13;;;10.20;;
51943;SDS011;37969;53.132;6.370;2023-04-06T08:33:07;17.98;;;11.13;;
51943;SDS011;37969;53.132;6.370;2023-04-06T08:35:33;14.50;;;10.35;;
51943;SDS011;37969;53.132;6.370;2023-04-06T08:38:00;15.52;;;9.18;;
51943;SDS011;37969;53.132;6.370;2023-04-06T08:40:26;13.85;;;9.88;;
51943;SDS011;37969;53.132;6.370;2023-04-06T08:42:54;16.50;;;9.15;;
51943;SDS011;37969;53.132;6.370;2023-04-06T08:45:20;16.55;;;10.43;;
51943;SDS011;37969;53.132;6.370;2023-04-06T08:47:48;14.93;;;10.63;;
51943;SDS011;37969;53.132;6.370;2023-04-06T08:50:15;18.63;;;10.20;;
51943;SDS011;37969;53.132;6.370;2023-04-06T08:52:43;14.50;;;10.82;;
51943;SDS011;37969;53.132;6.370;2023-04-06T08:55:09;17.95;;;10.52;;
51943;SDS011;37969;53.132;6.370;2023-04-06T08:57:35;16.27;;;11.32;;
51943;SDS011;37969;53.132;6.370;2023-04-06T09:00:02;11.73;;;10.38;;
51943;SDS011;37969;53.132;6.370;2023-04-06T09:02:28;14.82;;;11.07;;
51943;SDS011;37969;53.132;6.370;2023-04-06T09:04:55;14.65;;;10.27;;
51943;SDS011;37969;53.132;6.370;2023-04-06T09:07:22;17.70;;;11.73;;
51943;SDS011;37969;53.132;6.370;2023-04-06T09:09:49;21.30;;;12.07;;
51943;SDS011;37969;53.132;6.370;2023-04-06T09:12:23;14.70;;;11.20;;
51943;SDS011;37969;53.132;6.370;2023-04-06T09:14:49;17.75;;;12.02;;
51943;SDS011;37969;53.132;6.370;2023-04-06T09:17:20;15.82;;;11.68;;
51943;SDS011;37969;53.132;6.370;2023-04-06T09:19:46;15.60;;;11.80;;
51943;SDS011;37969;53.132;6.370;2023-04-06T09:22:12;19.25;;;12.50;;
51943;SDS011;37969;53.132;6.370;2023-04-06T09:24:39;15.38;;;11.73;;
51943;SDS011;37969;53.132;6.370;2023-04-06T09:27:06;15.85;;;12.30;;
51943;SDS011;37969;53.132;6.370;2023-04-06T09:29:32;19.08;;;12.52;;
51943;SDS011;37969;53.132;6.370;2023-04-06T09:32:02;19.73;;;12.82;;
51943;SDS011;37969;53.132;6.370;2023-04-06T09:34:28;20.60;;;14.52;;
51943;SDS011;37969;53.132;6.370;2023-04-06T09:36:55;24.50;;;14.63;;
51943;SDS011;37969;53.132;6.370;2023-04-06T09:39:21;20.20;;;13.70;;
51943;SDS011;37969;53.132;6.370;2023-04-06T09:41:54;22.20;;;14.88;;
51943;SDS011;37969;53.132;6.370;2023-04-06T09:44:20;22.15;;;14.60;;
51943;SDS011;37969;53.132;6.370;2023-04-06T09:46:49;25.83;;;16.02;;
51943;SDS011;37969;53.132;6.370;2023-04-06T09:49:15;22.85;;;14.70;;
51943;SDS011;37969;53.132;6.370;2023-04-06T09:51:45;24.45;;;15.45;;
51943;SDS011;37969;53.132;6.370;2023-04-06T09:54:15;24.33;;;15.57;;
51943;SDS011;37969;53.132;6.370;2023-04-06T09:56:46;23.13;;;15.80;;
51943;SDS011;37969;53.132;6.370;2023-04-06T09:59:14;23.30;;;15.48;;
51943;SDS011;37969;53.132;6.370;2023-04-06T10:01:41;23.10;;;16.10;;
51943;SDS011;37969;53.132;6.370;2023-04-06T10:04:10;29.10;;;17.35;;
51943;SDS011;37969;53.132;6.370;2023-04-06T10:06:39;22.05;;;17.13;;
51943;SDS011;37969;53.132;6.370;2023-04-06T10:09:05;23.48;;;16.92;;
51943;SDS011;37969;53.132;6.370;2023-04-06T10:11:33;26.35;;;18.25;;
51943;SDS011;37969;53.132;6.370;2023-04-06T10:13:59;27.13;;;17.15;;
51943;SDS011;37969;53.132;6.370;2023-04-06T10:16:26;26.17;;;18.45;;
51943;SDS011;37969;53.132;6.370;2023-04-06T10:18:55;28.42;;;17.92;;
51943;SDS011;37969;53.132;6.370;2023-04-06T10:21:23;28.20;;;17.80;;
51943;SDS011;37969;53.132;6.370;2023-04-06T10:23:52;24.70;;;17.92;;
51943;SDS011;37969;53.132;6.370;2023-04-06T10:26:20;23.85;;;17.38;;
51943;SDS011;37969;53.132;6.370;2023-04-06T10:28:47;25.65;;;18.58;;
51943;SDS011;37969;53.132;6.370;2023-04-06T10:31:14;25.98;;;16.80;;
51943;SDS011;37969;53.132;6.370;2023-04-06T10:33:40;27.02;;;18.38;;
51943;SDS011;37969;53.132;6.370;2023-04-06T10:36:13;26.42;;;18.30;;
51943;SDS011;37969;53.132;6.370;2023-04-06T10:38:40;30.80;;;20.45;;
51943;SDS011;37969;53.132;6.370;2023-04-06T10:41:07;31.17;;;21.48;;
51943;SDS011;37969;53.132;6.370;2023-04-06T10:43:34;30.73;;;22.33;;
51943;SDS011;37969;53.132;6.370;2023-04-06T10:46:01;30.13;;;20.42;;
51943;SDS011;37969;53.132;6.370;2023-04-06T10:48:38;30.58;;;20.63;;
51943;SDS011;37969;53.132;6.370;2023-04-06T10:51:07;34.75;;;22.10;;
51943;SDS011;37969;53.132;6.370;2023-04-06T10:53:34;30.02;;;21.45;;
51943;SDS011;37969;53.132;6.370;2023-04-06T10:56:00;37.53;;;25.83;;
51943;SDS011;37969;53.132;6.370;2023-04-06T10:58:27;35.20;;;23.60;;
51943;SDS011;37969;53.132;6.370;2023-04-06T11:00:53;31.65;;;22.40;;
51943;SDS011;37969;53.132;6.370;2023-04-06T11:03:21;46.13;;;29.52;;
51943;SDS011;37969;53.132;6.370;2023-04-06T11:05:48;33.97;;;22.67;;
51943;SDS011;37969;53.132;6.370;2023-04-06T11:08:25;31.05;;;23.60;;
51943;SDS011;37969;53.132;6.370;2023-04-06T11:10:51;31.83;;;23.45;;
51943;SDS011;37969;53.132;6.370;2023-04-06T11:13:17;39.45;;;24.20;;
51943;SDS011;37969;53.132;6.370;2023-04-06T11:15:44;46.55;;;31.27;;
51943;SDS011;37969;53.132;6.370;2023-04-06T11:18:10;37.25;;;25.20;;
51943;SDS011;37969;53.132;6.370;2023-04-06T11:20:36;37.35;;;26.80;;
51943;SDS011;37969;53.132;6.370;2023-04-06T11:23:02;36.97;;;25.55;;
51943;SDS011;37969;53.132;6.370;2023-04-06T11:25:29;38.70;;;27.25;;
51943;SDS011;37969;53.132;6.370;2023-04-06T11:27:57;42.97;;;26.95;;
51943;SDS011;37969;53.132;6.370;2023-04-06T11:30:23;36.25;;;27.17;;
51943;SDS011;37969;53.132;6.370;2023-04-06T11:32:50;34.08;;;26.15;;
51943;SDS011;37969;53.132;6.370;2023-04-06T11:35:20;35.17;;;25.13;;
51943;SDS011;37969;53.132;6.370;2023-04-06T11:37:46;37.20;;;24.63;;
51943;SDS011;37969;53.132;6.370;2023-04-06T11:40:13;32.05;;;23.60;;
51943;SDS011;37969;53.132;6.370;2023-04-06T11:42:40;34.40;;;25.42;;
51943;SDS011;37969;53.132;6.370;2023-04-06T11:45:07;33.25;;;24.83;;
51943;SDS011;37969;53.132;6.370;2023-04-06T11:47:34;33.30;;;24.88;;
51943;SDS011;37969;53.132;6.370;2023-04-06T11:50:07;42.75;;;29.70;;
51943;SDS011;37969;53.132;6.370;2023-04-06T11:52:33;35.20;;;25.98;;
51943;SDS011;37969;53.132;6.370;2023-04-06T11:55:09;35.13;;;25.90;;
51943;SDS011;37969;53.132;6.370;2023-04-06T11:57:35;33.63;;;24.10;;
51943;SDS011;37969;53.132;6.370;2023-04-06T12:00:02;35.70;;;24.73;;
51943;SDS011;37969;53.132;6.370;2023-04-06T12:02:29;34.40;;;24.48;;
51943;SDS011;37969;53.132;6.370;2023-04-06T12:04:57;35.65;;;24.50;;
51943;SDS011;37969;53.132;6.370;2023-04-06T12:07:23;35.92;;;25.00;;
51943;SDS011;37969;53.132;6.370;2023-04-06T12:09:49;36.10;;;25.20;;
51943;SDS011;37969;53.132;6.370;2023-04-06T12:12:15;35.05;;;24.27;;
51943;SDS011;37969;53.132;6.370;2023-04-06T12:14:42;35.55;;;25.10;;
51943;SDS011;37969;53.132;6.370;2023-04-06T12:17:08;38.03;;;25.50;;
51943;SDS011;37969;53.132;6.370;2023-04-06T12:19:34;39.78;;;25.88;;
51943;SDS011;37969;53.132;6.370;2023-04-06T12:22:00;35.70;;;25.13;;
51943;SDS011;37969;53.132;6.370;2023-04-06T12:24:27;33.45;;;24.50;;
51943;SDS011;37969;53.132;6.370;2023-04-06T12:26:53;37.40;;;25.13;;
51943;SDS011;37969;53.132;6.370;2023-04-06T12:29:21;38.08;;;25.77;;
51943;SDS011;37969;53.132;6.370;2023-04-06T12:31:47;36.83;;;25.50;;
51943;SDS011;37969;53.132;6.370;2023-04-06T12:34:13;34.63;;;25.30;;
51943;SDS011;37969;53.132;6.370;2023-04-06T12:36:39;36.20;;;24.98;;
51943;SDS011;37969;53.132;6.370;2023-04-06T12:39:06;36.95;;;24.08;;
51943;SDS011;37969;53.132;6.370;2023-04-06T12:41:32;36.40;;;25.75;;
51943;SDS011;37969;53.132;6.370;2023-04-06T12:43:58;37.15;;;26.27;;
51943;SDS011;37969;53.132;6.370;2023-04-06T12:46:24;31.05;;;24.58;;
51943;SDS011;37969;53.132;6.370;2023-04-06T12:48:51;36.90;;;25.65;;
51943;SDS011;37969;53.132;6.370;2023-04-06T12:51:18;37.38;;;26.77;;
51943;SDS011;37969;53.132;6.370;2023-04-06T12:53:45;37.05;;;25.83;;
51943;SDS011;37969;53.132;6.370;2023-04-06T12:56:13;35.03;;;25.38;;
51943;SDS011;37969;53.132;6.370;2023-04-06T12:58:39;31.05;;;24.15;;
51943;SDS011;37969;53.132;6.370;2023-04-06T13:01:07;30.15;;;22.90;;
51943;SDS011;37969;53.132;6.370;2023-04-06T13:03:33;30.65;;;21.67;;
51943;SDS011;37969;53.132;6.370;2023-04-06T13:06:00;30.15;;;21.05;;
51943;SDS011;37969;53.132;6.370;2023-04-06T13:08:26;30.15;;;22.20;;
51943;SDS011;37969;53.132;6.370;2023-04-06T13:10:53;27.83;;;20.75;;
51943;SDS011;37969;53.132;6.370;2023-04-06T13:13:24;23.40;;;18.10;;
51943;SDS011;37969;53.132;6.370;2023-04-06T13:15:50;17.33;;;13.43;;
51943;SDS011;37969;53.132;6.370;2023-04-06T13:18:16;23.80;;;15.98;;
51943;SDS011;37969;53.132;6.370;2023-04-06T13:20:43;22.40;;;14.50;;
51943;SDS011;37969;53.132;6.370;2023-04-06T13:23:09;20.70;;;14.65;;
51943;SDS011;37969;53.132;6.370;2023-04-06T13:25:36;24.65;;;16.95;;
51943;SDS011;37969;53.132;6.370;2023-04-06T13:28:02;17.90;;;9.60;;
51943;SDS011;37969;53.132;6.370;2023-04-06T13:30:28;18.50;;;9.52;;
51943;SDS011;37969;53.132;6.370;2023-04-06T13:32:55;11.32;;;9.20;;
51943;SDS011;37969;53.132;6.370;2023-04-06T13:35:21;13.75;;;7.88;;
51943;SDS011;37969;53.132;6.370;2023-04-06T13:37:47;13.77;;;11.10;;
51943;SDS011;37969;53.132;6.370;2023-04-06T13:40:13;16.75;;;12.27;;
51943;SDS011;37969;53.132;6.370;2023-04-06T13:42:40;18.30;;;12.35;;
51943;SDS011;37969;53.132;6.370;2023-04-06T13:45:09;14.43;;;11.50;;
51943;SDS011;37969;53.132;6.370;2023-04-06T13:47:35;24.95;;;13.95;;
51943;SDS011;37969;53.132;6.370;2023-04-06T13:50:01;19.95;;;13.68;;
51943;SDS011;37969;53.132;6.370;2023-04-06T13:52:28;19.70;;;14.10;;
51943;SDS011;37969;53.132;6.370;2023-04-06T13:54:55;20.83;;;13.90;;
51943;SDS011;37969;53.132;6.370;2023-04-06T13:57:21;20.10;;;14.25;;
51943;SDS011;37969;53.132;6.370;2023-04-06T13:59:47;17.33;;;14.10;;
51943;SDS011;37969;53.132;6.370;2023-04-06T14:02:15;17.58;;;13.23;;
51943;SDS011;37969;53.132;6.370;2023-04-06T14:04:41;17.83;;;12.90;;
51943;SDS011;37969;53.132;6.370;2023-04-06T14:07:08;16.98;;;13.10;;
51943;SDS011;37969;53.132;6.370;2023-04-06T14:09:34;16.80;;;12.57;;
51943;SDS011;37969;53.132;6.370;2023-04-06T14:12:00;18.33;;;13.18;;
51943;SDS011;37969;53.132;6.370;2023-04-06T14:14:27;19.30;;;12.93;;
51943;SDS011;37969;53.132;6.370;2023-04-06T14:16:53;31.98;;;14.02;;
51943;SDS011;37969;53.132;6.370;2023-04-06T14:19:19;20.02;;;14.90;;
51943;SDS011;37969;53.132;6.370;2023-04-06T14:21:47;18.25;;;13.50;;
51943;SDS011;37969;53.132;6.370;2023-04-06T14:24:14;17.35;;;13.40;;